createdAt,value
2023-02-17T00:00:21.715Z,3.72
2023-02-17T00:01:33.293Z,5.12
2023-02-17T00:02:36.219Z,5.05
2023-02-17T00:03:39.145Z,4.43
2023-02-17T00:04:41.912Z,4.35
2023-02-17T00:05:46.093Z,4.03
2023-02-17T00:06:49.283Z,4.97
2023-02-17T00:07:52.543Z,4.30
2023-02-17T00:08:56.504Z,4.78
2023-02-17T00:10:00.139Z,3.92
2023-02-17T00:11:03.882Z,4.95
2023-02-17T00:12:06.924Z,5.78
2023-02-17T00:13:09.754Z,3.75
2023-02-17T00:14:14.176Z,5.10
2023-02-17T00:15:17.174Z,5.93
2023-02-17T00:16:25.698Z,3.83
2023-02-17T00:17:28.899Z,3.72
2023-02-17T00:18:31.650Z,3.47
2023-02-17T00:19:34.881Z,3.92
2023-02-17T00:20:37.632Z,3.72
2023-02-17T00:21:40.472Z,4.62
2023-02-17T00:22:43.214Z,5.30
2023-02-17T00:23:47.401Z,4.28
2023-02-17T00:24:50.200Z,6.20
2023-02-17T00:25:53.028Z,4.22
2023-02-17T00:26:56.595Z,4.15
2023-02-17T00:27:59.554Z,4.50
2023-02-17T00:29:02.386Z,4.55
2023-02-17T00:30:05.869Z,4.50
2023-02-17T00:31:16.535Z,3.92
2023-02-17T00:33:22.143Z,3.72
2023-02-17T00:34:26.035Z,3.75
2023-02-17T00:35:28.689Z,3.75
2023-02-17T00:36:31.641Z,4.55
2023-02-17T00:37:35.924Z,3.90
2023-02-17T00:38:39.732Z,4.43
2023-02-17T00:39:42.750Z,3.80
2023-02-17T00:40:46.242Z,3.87
2023-02-17T00:41:49.386Z,4.22
2023-02-17T00:42:55.074Z,4.10
2023-02-17T00:43:58.422Z,4.55
2023-02-17T00:45:01.218Z,3.40
2023-02-17T00:46:04.697Z,3.45
2023-02-17T00:47:07.852Z,3.50
2023-02-17T00:48:11.105Z,3.33
2023-02-17T00:49:22.652Z,4.18
2023-02-17T00:50:25.616Z,3.22
2023-02-17T00:51:28.421Z,3.53
2023-02-17T00:52:31.236Z,4.05
2023-02-17T00:53:33.980Z,3.87
2023-02-17T00:54:36.824Z,3.78
2023-02-17T00:55:39.630Z,4.15
2023-02-17T00:56:42.759Z,3.53
2023-02-17T00:57:46.018Z,4.05
2023-02-17T00:58:48.893Z,3.42
2023-02-17T00:59:51.760Z,3.85
2023-02-17T01:00:58.488Z,3.95
2023-02-17T01:02:01.447Z,3.33
2023-02-17T01:03:04.855Z,4.35
2023-02-17T01:04:07.941Z,3.78
2023-02-17T01:05:10.780Z,3.83
2023-02-17T01:06:23.060Z,3.85
2023-02-17T01:07:26.322Z,2.50
2023-02-17T01:08:29.244Z,3.45
2023-02-17T01:09:32.166Z,3.25
2023-02-17T01:10:41.265Z,3.75
2023-02-17T01:11:44.466Z,3.53
2023-02-17T01:12:47.539Z,2.67
2023-02-17T01:13:50.791Z,4.35
2023-02-17T01:14:53.700Z,3.42
2023-02-17T01:15:59.174Z,2.97
2023-02-17T01:17:02.240Z,2.30
2023-02-17T01:18:05.747Z,3.78
2023-02-17T01:19:12.088Z,3.25
2023-02-17T01:20:15.267Z,2.90
2023-02-17T01:21:24.821Z,3.33
2023-02-17T01:22:27.816Z,3.30
2023-02-17T01:23:30.571Z,3.33
2023-02-17T01:24:33.289Z,2.58
2023-02-17T01:25:44.869Z,3.65
2023-02-17T01:26:48.205Z,4.15
2023-02-17T01:27:51.115Z,2.62
2023-02-17T01:28:54.859Z,2.42
2023-02-17T01:29:57.771Z,3.53
2023-02-17T01:31:07.694Z,3.95
2023-02-17T01:32:10.619Z,4.10
2023-02-17T01:33:13.591Z,2.83
2023-02-17T01:34:16.340Z,3.08
2023-02-17T01:35:19.222Z,2.17
2023-02-17T01:36:22.092Z,3.28
2023-02-17T01:37:25.014Z,3.35
2023-02-17T01:38:28.460Z,2.90
2023-02-17T01:39:31.386Z,3.72
2023-02-17T01:40:34.292Z,2.58
2023-02-17T01:41:37.011Z,2.80
2023-02-17T01:42:39.813Z,3.10
2023-02-17T01:43:43.326Z,3.10
2023-02-17T01:45:20.325Z,2.53
2023-02-17T01:46:22.979Z,3.03
2023-02-17T01:47:25.914Z,3.15
2023-02-17T01:48:31.670Z,3.35
2023-02-17T01:49:38.352Z,2.83
2023-02-17T01:51:06.534Z,3.12
2023-02-17T01:52:21.024Z,2.67
2023-02-17T01:53:33.722Z,3.83
2023-02-17T01:54:44.869Z,2.50
2023-02-17T01:55:48.802Z,3.10
2023-02-17T01:56:52.004Z,2.60
2023-02-17T01:57:59.023Z,2.87
2023-02-17T01:59:10.877Z,2.50
2023-02-17T02:00:14.946Z,2.62
2023-02-17T02:01:18.330Z,2.35
2023-02-17T02:02:22.278Z,3.28
2023-02-17T02:03:27.644Z,3.25
2023-02-17T02:04:34.208Z,2.90
2023-02-17T02:05:40.538Z,2.40
2023-02-17T02:06:45.251Z,2.60
2023-02-17T02:07:50.570Z,2.45
2023-02-17T02:09:00.048Z,2.95
2023-02-17T02:10:03.223Z,3.30
2023-02-17T02:11:08.054Z,2.58
2023-02-17T02:12:28.189Z,2.47
2023-02-17T02:13:31.227Z,2.50
2023-02-17T02:14:33.982Z,2.62
2023-02-17T02:15:48.296Z,3.22
2023-02-17T02:17:08.867Z,2.17
2023-02-17T02:18:23.823Z,2.47
2023-02-17T02:19:59.056Z,2.15
2023-02-17T02:21:46.195Z,2.03
2023-02-17T02:23:04.477Z,2.10
2023-02-17T02:24:48.295Z,2.83
2023-02-17T02:26:26.750Z,1.90
2023-02-17T02:28:19.993Z,2.33
2023-02-17T02:29:52.482Z,1.90
2023-02-17T02:31:21.438Z,1.50
2023-02-17T02:32:50.762Z,1.80
2023-02-17T02:34:15.277Z,3.12
2023-02-17T02:35:34.814Z,2.53
2023-02-17T02:37:00.895Z,2.50
2023-02-17T02:38:25.128Z,1.90
2023-02-17T02:39:36.066Z,2.25
2023-02-17T02:42:08.360Z,2.12
2023-02-17T02:43:12.565Z,2.45
2023-02-17T02:44:18.312Z,2.78
2023-02-17T02:45:21.934Z,1.85
2023-02-17T02:46:25.116Z,2.30
2023-02-17T02:47:55.810Z,2.53
2023-02-17T02:48:59.201Z,1.85
2023-02-17T02:50:02.846Z,2.58
2023-02-17T02:51:28.234Z,2.75
2023-02-17T02:53:06.193Z,2.37
2023-02-17T02:54:15.785Z,2.42
2023-02-17T02:55:39.246Z,2.72
2023-02-17T02:57:21.318Z,2.53
2023-02-17T02:58:32.922Z,2.40
2023-02-17T02:59:44.686Z,2.67
2023-02-17T03:01:01.053Z,3.22
2023-02-17T03:02:15.301Z,3.08
2023-02-17T03:03:40.883Z,1.85
2023-02-17T03:04:58.593Z,3.03
2023-02-17T03:06:29.673Z,2.55
2023-02-17T03:07:41.421Z,2.50
2023-02-17T03:08:59.257Z,2.12
2023-02-17T03:10:02.471Z,2.60
2023-02-17T03:11:05.976Z,2.35
2023-02-17T03:12:08.905Z,2.70
2023-02-17T03:13:11.677Z,3.08
2023-02-17T03:14:19.175Z,2.10
2023-02-17T03:15:35.080Z,1.95
2023-02-17T03:16:40.121Z,2.83
2023-02-17T03:17:42.995Z,3.08
2023-02-17T03:18:45.862Z,2.25
2023-02-17T03:19:48.656Z,2.70
2023-02-17T03:20:56.346Z,2.72
2023-02-17T03:21:59.313Z,2.95
2023-02-17T03:23:03.447Z,2.35
2023-02-17T03:24:06.928Z,2.75
2023-02-17T03:25:09.838Z,2.20
2023-02-17T03:26:12.692Z,2.85
2023-02-17T03:27:15.498Z,2.28
2023-02-17T03:28:19.896Z,2.97
2023-02-17T03:29:22.804Z,2.30
2023-02-17T03:30:25.834Z,4.25
2023-02-17T03:31:30.775Z,2.50
2023-02-17T03:32:33.859Z,2.40
2023-02-17T03:33:36.676Z,3.42
2023-02-17T03:34:39.599Z,2.97
2023-02-17T03:35:42.410Z,2.55
2023-02-17T03:36:45.186Z,3.67
2023-02-17T03:37:48.278Z,2.42
2023-02-17T03:38:51.626Z,2.70
2023-02-17T03:39:54.688Z,2.95
2023-02-17T03:40:57.464Z,2.70
2023-02-17T03:42:00.982Z,2.72
2023-02-17T03:43:03.921Z,2.83
2023-02-17T03:44:06.842Z,2.87
2023-02-17T03:45:14.636Z,2.78
2023-02-17T03:46:18.440Z,3.72
2023-02-17T03:47:21.382Z,2.47
2023-02-17T03:48:24.588Z,2.78
2023-02-17T03:49:27.436Z,2.87
2023-02-17T03:50:30.816Z,2.50
2023-02-17T03:51:33.692Z,2.72
2023-02-17T03:52:36.711Z,3.55
2023-02-17T03:53:40.679Z,3.08
2023-02-17T03:54:43.420Z,2.58
2023-02-17T03:55:46.211Z,2.83
2023-02-17T03:56:49.147Z,2.58
2023-02-17T03:57:51.991Z,2.65
2023-02-17T03:58:55.691Z,2.22
2023-02-17T03:59:58.725Z,3.08
2023-02-17T04:01:01.944Z,3.65
2023-02-17T04:02:04.919Z,2.50
2023-02-17T04:03:07.816Z,2.60
2023-02-17T04:04:10.830Z,2.75
2023-02-17T04:05:13.694Z,2.75
2023-02-17T04:06:16.601Z,2.90
2023-02-17T04:07:19.710Z,2.08
2023-02-17T04:08:23.439Z,3.80
2023-02-17T04:09:26.303Z,2.17
2023-02-17T04:10:29.510Z,3.40
2023-02-17T04:11:32.538Z,3.40
2023-02-17T04:12:35.255Z,3.03
2023-02-17T04:13:38.579Z,2.53
2023-02-17T04:14:41.264Z,3.12
2023-02-17T04:15:44.004Z,2.58
2023-02-17T04:16:46.906Z,2.30
2023-02-17T04:17:49.658Z,2.80
2023-02-17T04:18:52.624Z,2.90
2023-02-17T04:19:55.462Z,2.97
2023-02-17T04:20:58.430Z,2.90
2023-02-17T04:22:01.415Z,3.25
2023-02-17T04:23:04.252Z,2.83
2023-02-17T04:24:07.253Z,2.95
2023-02-17T04:25:10.034Z,2.25
2023-02-17T04:26:13.011Z,3.15
2023-02-17T04:27:15.817Z,2.70
2023-02-17T04:28:18.851Z,3.37
2023-02-17T04:29:21.801Z,3.45
2023-02-17T04:30:24.686Z,2.25
2023-02-17T04:31:28.387Z,2.50
2023-02-17T04:32:31.448Z,4.45
2023-02-17T04:33:34.618Z,3.33
2023-02-17T04:34:37.485Z,2.90
2023-02-17T04:35:40.610Z,2.80
2023-02-17T04:36:44.363Z,2.00
2023-02-17T04:37:47.809Z,2.87
2023-02-17T04:38:50.574Z,2.22
2023-02-17T04:39:53.281Z,2.78
2023-02-17T04:40:57.658Z,2.25
2023-02-17T04:42:00.376Z,3.15
2023-02-17T04:43:03.509Z,2.47
2023-02-17T04:44:06.218Z,2.37
2023-02-17T04:45:09.836Z,2.40
2023-02-17T04:46:12.613Z,2.20
2023-02-17T04:47:15.568Z,2.72
2023-02-17T04:48:19.428Z,2.42
2023-02-17T04:49:22.170Z,2.58
2023-02-17T04:50:25.017Z,2.25
2023-02-17T04:51:27.858Z,2.37
2023-02-17T04:52:30.654Z,2.30
2023-02-17T04:53:35.044Z,3.00
2023-02-17T04:54:37.930Z,1.90
2023-02-17T04:55:42.048Z,2.42
2023-02-17T04:56:45.370Z,2.42
2023-02-17T04:57:48.138Z,3.15
2023-02-17T04:58:50.849Z,1.70
2023-02-17T04:59:53.780Z,2.33
2023-02-17T05:01:00.867Z,2.72
2023-02-17T05:02:03.855Z,1.45
2023-02-17T05:03:06.808Z,2.53
2023-02-17T05:04:09.620Z,3.00
2023-02-17T05:05:15.520Z,2.42
2023-02-17T05:06:18.253Z,2.65
2023-02-17T05:07:21.165Z,2.95
2023-02-17T05:08:24.091Z,2.37
2023-02-17T05:09:27.115Z,2.87
2023-02-17T05:10:30.028Z,2.47
2023-02-17T05:11:32.834Z,1.85
2023-02-17T05:12:35.875Z,2.17
2023-02-17T05:13:38.613Z,2.30
2023-02-17T05:14:41.673Z,1.67
2023-02-17T05:15:45.912Z,2.15
2023-02-17T05:16:48.919Z,2.17
2023-02-17T05:17:51.738Z,2.22
2023-02-17T05:18:54.765Z,2.30
2023-02-17T05:19:57.638Z,2.83
2023-02-17T05:21:01.481Z,2.50
2023-02-17T05:22:04.280Z,3.42
2023-02-17T05:23:07.303Z,2.45
2023-02-17T05:24:10.060Z,2.30
2023-02-17T05:25:12.787Z,1.92
2023-02-17T05:26:15.684Z,3.60
2023-02-17T05:27:19.254Z,2.10
2023-02-17T05:28:22.080Z,2.72
2023-02-17T05:29:25.109Z,2.45
2023-02-17T05:30:28.471Z,2.78
2023-02-17T05:31:31.579Z,1.80
2023-02-17T05:32:34.533Z,2.40
2023-02-17T05:33:37.476Z,3.17
2023-02-17T05:34:40.343Z,3.83
2023-02-17T05:35:43.040Z,3.25
2023-02-17T05:36:45.873Z,2.75
2023-02-17T05:37:49.414Z,2.85
2023-02-17T05:38:53.137Z,2.33
2023-02-17T05:39:56.072Z,2.75
2023-02-17T05:40:58.980Z,2.65
2023-02-17T05:42:01.705Z,2.50
2023-02-17T05:43:04.587Z,2.67
2023-02-17T05:44:07.445Z,3.45
2023-02-17T05:45:10.461Z,2.58
2023-02-17T05:46:14.000Z,2.67
2023-02-17T05:47:16.809Z,2.62
2023-02-17T05:48:19.778Z,2.90
2023-02-17T05:49:22.836Z,3.00
2023-02-17T05:50:25.735Z,3.60
2023-02-17T05:51:28.590Z,2.35
2023-02-17T05:52:31.884Z,2.72
2023-02-17T05:53:34.771Z,2.67
2023-02-17T05:54:37.791Z,2.30
2023-02-17T05:55:40.567Z,2.03
2023-02-17T05:56:43.347Z,2.95
2023-02-17T05:57:46.229Z,3.90
2023-02-17T05:58:49.054Z,2.20
2023-02-17T05:59:52.243Z,3.95
2023-02-17T06:00:55.528Z,2.62
2023-02-17T06:01:58.638Z,3.30
2023-02-17T06:03:01.600Z,2.17
2023-02-17T06:04:05.101Z,2.65
2023-02-17T06:05:08.947Z,3.08
2023-02-17T06:06:11.914Z,3.33
2023-02-17T06:07:15.049Z,2.17
2023-02-17T06:08:17.960Z,2.53
2023-02-17T06:09:20.748Z,2.40
2023-02-17T06:10:23.690Z,2.72
2023-02-17T06:11:26.512Z,2.83
2023-02-17T06:12:29.200Z,2.28
2023-02-17T06:13:32.205Z,3.22
2023-02-17T06:14:35.144Z,2.10
2023-02-17T06:15:37.989Z,2.22
2023-02-17T06:16:40.939Z,2.78
2023-02-17T06:17:43.798Z,3.10
2023-02-17T06:18:46.602Z,2.12
2023-02-17T06:19:49.663Z,2.45
2023-02-17T06:20:58.572Z,2.33
2023-02-17T06:22:01.286Z,1.77
2023-02-17T06:23:04.090Z,3.22
2023-02-17T06:24:09.118Z,2.75
2023-02-17T06:25:12.104Z,3.05
2023-02-17T06:26:14.935Z,2.45
2023-02-17T06:27:17.856Z,2.78
2023-02-17T06:28:20.715Z,2.80
2023-02-17T06:29:23.703Z,2.70
2023-02-17T06:30:26.989Z,2.50
2023-02-17T06:31:30.236Z,2.62
2023-02-17T06:32:33.167Z,2.83
2023-02-17T06:33:36.408Z,3.08
2023-02-17T06:34:39.299Z,2.08
2023-02-17T06:35:42.040Z,2.70
2023-02-17T06:36:45.185Z,2.72
2023-02-17T06:37:48.195Z,3.15
2023-02-17T06:38:50.974Z,2.67
2023-02-17T06:39:53.858Z,2.45
2023-02-17T06:40:57.059Z,3.12
2023-02-17T06:42:00.188Z,2.87
2023-02-17T06:43:03.096Z,2.83
2023-02-17T06:44:05.912Z,2.87
2023-02-17T06:45:09.255Z,2.90
2023-02-17T06:46:12.182Z,2.53
2023-02-17T06:47:14.947Z,3.03
2023-02-17T06:48:17.764Z,2.65
2023-02-17T06:49:20.530Z,2.65
2023-02-17T06:50:23.534Z,3.35
2023-02-17T06:51:26.347Z,3.42
2023-02-17T06:52:29.181Z,2.78
2023-02-17T06:53:32.125Z,2.92
2023-02-17T06:54:35.039Z,4.30
2023-02-17T06:55:39.206Z,2.67
2023-02-17T06:56:42.191Z,3.22
2023-02-17T06:57:45.037Z,3.00
2023-02-17T06:58:48.150Z,2.80
2023-02-17T06:59:50.955Z,2.50
2023-02-17T07:00:53.655Z,3.97
2023-02-17T07:01:56.498Z,2.97
2023-02-17T07:02:59.747Z,3.30
2023-02-17T07:04:02.681Z,3.30
2023-02-17T07:05:06.447Z,3.37
2023-02-17T07:06:09.293Z,3.28
2023-02-17T07:07:12.457Z,3.45
2023-02-17T07:08:15.411Z,3.70
2023-02-17T07:09:18.319Z,2.45
2023-02-17T07:10:21.068Z,2.62
2023-02-17T07:11:23.878Z,3.42
2023-02-17T07:12:29.171Z,2.92
2023-02-17T07:13:32.024Z,2.85
2023-02-17T07:14:35.796Z,3.10
2023-02-17T07:15:38.605Z,3.00
2023-02-17T07:16:41.323Z,3.28
2023-02-17T07:17:44.150Z,3.47
2023-02-17T07:18:47.534Z,2.55
2023-02-17T07:19:50.354Z,2.58
2023-02-17T07:20:53.138Z,3.10
2023-02-17T07:21:56.014Z,3.05
2023-02-17T07:23:00.050Z,3.47
2023-02-17T07:24:03.229Z,2.85
2023-02-17T07:25:06.774Z,3.03
2023-02-17T07:26:11.981Z,3.25
2023-02-17T07:27:15.218Z,3.35
2023-02-17T07:28:18.206Z,3.58
2023-02-17T07:29:21.175Z,3.58
2023-02-17T07:30:24.030Z,3.78
2023-02-17T07:31:26.918Z,3.72
2023-02-17T07:32:29.923Z,3.97
2023-02-17T07:33:33.786Z,3.30
2023-02-17T07:34:37.949Z,3.05
2023-02-17T07:35:44.089Z,3.42
2023-02-17T07:36:46.895Z,3.22
2023-02-17T07:37:51.764Z,3.00
2023-02-17T07:38:55.335Z,3.53
2023-02-17T07:39:57.984Z,3.10
2023-02-17T07:41:13.200Z,3.72
2023-02-17T07:42:15.935Z,2.78
2023-02-17T07:43:18.741Z,3.20
2023-02-17T07:44:21.442Z,3.20
2023-02-17T07:45:24.319Z,3.03
2023-02-17T07:46:27.702Z,3.95
2023-02-17T07:47:32.773Z,3.72
2023-02-17T07:48:36.000Z,3.35
2023-02-17T07:49:38.826Z,3.08
2023-02-17T07:50:44.037Z,3.05
2023-02-17T07:51:47.131Z,2.60
2023-02-17T07:52:51.426Z,3.22
2023-02-17T07:53:55.149Z,4.28
2023-02-17T07:54:57.932Z,3.17
2023-02-17T07:56:03.480Z,4.57
2023-02-17T07:57:06.388Z,3.35
2023-02-17T07:58:09.112Z,4.15
2023-02-17T07:59:14.146Z,2.87
2023-02-17T08:00:17.700Z,3.83
2023-02-17T08:01:23.367Z,3.15
2023-02-17T08:02:26.259Z,3.17
2023-02-17T08:03:29.172Z,3.30
2023-02-17T08:04:33.273Z,3.92
2023-02-17T08:05:39.451Z,3.17
2023-02-17T08:06:42.856Z,3.20
2023-02-17T08:07:46.934Z,3.67
2023-02-17T08:09:10.226Z,2.92
2023-02-17T08:10:32.305Z,3.00
2023-02-17T08:11:54.020Z,2.60
2023-02-17T08:13:15.224Z,3.40
2023-02-17T08:14:18.285Z,3.35
2023-02-17T08:15:21.183Z,3.17
2023-02-17T08:16:26.979Z,2.80
2023-02-17T08:17:30.565Z,3.72
2023-02-17T08:18:36.536Z,3.10
2023-02-17T08:19:48.033Z,2.40
2023-02-17T08:20:52.509Z,3.70
2023-02-17T08:21:55.303Z,3.45
2023-02-17T08:22:58.201Z,4.30
2023-02-17T08:24:01.148Z,3.28
2023-02-17T08:25:06.530Z,2.97
2023-02-17T08:26:09.471Z,4.28
2023-02-17T08:27:13.473Z,4.15
2023-02-17T08:28:18.217Z,3.85
2023-02-17T08:29:21.093Z,3.85
2023-02-17T08:30:24.188Z,4.00
2023-02-17T08:31:29.823Z,3.35
2023-02-17T08:32:32.589Z,4.18
2023-02-17T08:33:35.351Z,3.20
2023-02-17T08:34:38.259Z,3.65
2023-02-17T08:35:42.401Z,4.28
2023-02-17T08:36:46.625Z,3.28
2023-02-17T08:37:50.852Z,3.10
2023-02-17T08:38:54.134Z,3.37
2023-02-17T08:40:01.728Z,3.22
2023-02-17T08:41:16.294Z,3.42
2023-02-17T08:42:20.071Z,2.80
2023-02-17T08:43:23.021Z,3.45
2023-02-17T08:44:25.841Z,2.95
2023-02-17T08:45:28.732Z,3.35
2023-02-17T08:46:31.688Z,3.78
2023-02-17T08:47:35.852Z,3.70
2023-02-17T08:48:38.630Z,4.50
2023-02-17T08:49:41.398Z,3.65
2023-02-17T08:50:47.759Z,3.45
2023-02-17T08:51:51.482Z,3.72
2023-02-17T08:52:54.364Z,4.25
2023-02-17T08:53:59.252Z,4.10
2023-02-17T08:55:02.080Z,3.83
2023-02-17T08:56:06.485Z,3.25
2023-02-17T08:57:09.425Z,3.58
2023-02-17T08:58:12.663Z,4.05
2023-02-17T08:59:16.123Z,3.28
2023-02-17T09:00:19.327Z,3.60
2023-02-17T09:01:23.449Z,3.33
2023-02-17T09:02:26.308Z,3.50
2023-02-17T09:03:29.133Z,3.55
2023-02-17T09:04:32.392Z,3.20
2023-02-17T09:05:36.461Z,3.45
2023-02-17T09:06:49.646Z,3.20
2023-02-17T09:07:52.595Z,4.00
2023-02-17T09:08:55.400Z,3.95
2023-02-17T09:09:58.469Z,3.30
2023-02-17T09:11:01.730Z,3.20
2023-02-17T09:12:05.279Z,3.80
2023-02-17T09:13:08.152Z,4.35
2023-02-17T09:14:11.517Z,3.40
2023-02-17T09:15:14.344Z,3.90
2023-02-17T09:16:19.224Z,3.50
2023-02-17T09:17:22.087Z,3.37
2023-02-17T09:18:26.037Z,3.75
2023-02-17T09:19:28.940Z,3.60
2023-02-17T09:20:31.844Z,3.58
2023-02-17T09:21:34.739Z,3.33
2023-02-17T09:22:38.193Z,2.83
2023-02-17T09:23:41.531Z,3.17
2023-02-17T09:24:44.684Z,4.35
2023-02-17T09:25:47.934Z,3.83
2023-02-17T09:26:50.782Z,4.40
2023-02-17T09:27:53.702Z,3.28
2023-02-17T09:28:58.172Z,4.62
2023-02-17T09:30:01.693Z,3.05
2023-02-17T09:31:13.240Z,3.28
2023-02-17T09:32:16.313Z,3.25
2023-02-17T09:33:19.032Z,3.25
2023-02-17T09:34:21.830Z,3.78
2023-02-17T09:35:25.290Z,3.40
2023-02-17T09:36:31.377Z,3.00
2023-02-17T09:37:34.565Z,2.78
2023-02-17T09:38:42.151Z,3.53
2023-02-17T09:39:46.016Z,2.25
2023-02-17T09:40:50.458Z,3.50
2023-02-17T09:41:55.376Z,2.87
2023-02-17T09:42:58.178Z,3.00
2023-02-17T09:44:01.687Z,2.90
2023-02-17T09:45:32.357Z,2.80
2023-02-17T09:46:59.466Z,3.00
2023-02-17T09:48:08.452Z,3.30
2023-02-17T09:49:17.869Z,2.83
2023-02-17T09:50:29.944Z,2.67
2023-02-17T09:51:58.850Z,3.40
2023-02-17T09:53:25.762Z,2.50
2023-02-17T09:54:51.973Z,2.03
2023-02-17T09:55:57.982Z,2.37
2023-02-17T09:57:03.553Z,3.55
2023-02-17T09:58:16.476Z,2.80
2023-02-17T09:59:28.444Z,2.47
2023-02-17T10:00:38.494Z,2.72
2023-02-17T10:01:42.127Z,3.20
2023-02-17T10:03:18.257Z,3.28
2023-02-17T10:04:35.658Z,3.90
2023-02-17T10:06:02.473Z,3.00
2023-02-17T10:07:24.647Z,3.72
2023-02-17T10:08:35.849Z,2.10
2023-02-17T10:10:11.282Z,3.33
2023-02-17T10:11:23.445Z,2.78
2023-02-17T10:12:30.601Z,2.50
2023-02-17T10:13:38.059Z,2.47
2023-02-17T10:14:56.030Z,3.40
2023-02-17T10:16:05.386Z,3.35
2023-02-17T10:17:23.864Z,2.50
2023-02-17T10:18:42.212Z,2.58
2023-02-17T10:19:54.472Z,2.62
2023-02-17T10:21:07.600Z,2.87
2023-02-17T10:22:20.374Z,2.22
2023-02-17T10:23:26.331Z,2.28
2023-02-17T10:24:29.004Z,3.00
2023-02-17T10:25:42.133Z,2.83
2023-02-17T10:26:56.062Z,3.08
2023-02-17T10:28:10.114Z,2.60
2023-02-17T10:29:28.709Z,2.83
2023-02-17T10:30:46.068Z,2.33
2023-02-17T10:32:12.512Z,2.55
2023-02-17T10:33:31.845Z,3.00
2023-02-17T10:34:43.081Z,3.30
2023-02-17T10:35:56.441Z,2.42
2023-02-17T10:37:03.448Z,2.00
2023-02-17T10:38:32.589Z,3.03
2023-02-17T10:39:44.863Z,2.90
2023-02-17T10:40:51.746Z,3.00
2023-02-17T10:41:56.296Z,3.10
2023-02-17T10:43:06.306Z,3.03
2023-02-17T10:44:17.878Z,2.92
2023-02-17T10:45:32.341Z,2.03
2023-02-17T10:46:35.181Z,3.28
2023-02-17T10:47:40.228Z,2.40
2023-02-17T10:48:49.773Z,4.03
2023-02-17T10:49:56.758Z,2.87
2023-02-17T10:51:01.450Z,3.53
2023-02-17T10:52:14.783Z,3.40
2023-02-17T10:53:23.097Z,3.20
2023-02-17T10:54:38.630Z,2.65
2023-02-17T10:55:50.716Z,2.78
2023-02-17T10:56:57.671Z,2.80
2023-02-17T10:58:23.652Z,3.67
2023-02-17T10:59:42.885Z,3.30
2023-02-17T11:00:52.492Z,3.03
2023-02-17T11:02:14.550Z,3.80
2023-02-17T11:03:21.703Z,2.33
2023-02-17T11:04:24.480Z,3.12
2023-02-17T11:05:33.129Z,2.72
2023-02-17T11:06:49.367Z,3.33
2023-02-17T11:07:58.299Z,3.83
2023-02-17T11:09:05.331Z,3.50
2023-02-17T11:10:22.660Z,3.62
2023-02-17T11:11:29.550Z,3.58
2023-02-17T11:12:41.542Z,5.68
2023-02-17T11:14:06.830Z,3.10
2023-02-17T11:15:39.362Z,3.15
2023-02-17T11:16:47.263Z,2.80
2023-02-17T11:17:51.223Z,3.58
2023-02-17T11:18:57.542Z,3.72
2023-02-17T11:20:13.948Z,3.60
2023-02-17T11:21:17.175Z,2.60
2023-02-17T11:22:41.721Z,3.60
2023-02-17T11:24:02.834Z,2.70
2023-02-17T11:25:22.070Z,2.47
2023-02-17T11:26:27.757Z,3.87
2023-02-17T11:27:30.704Z,2.78
2023-02-17T11:28:33.493Z,4.32
2023-02-17T11:29:37.118Z,4.07
2023-02-17T11:30:48.990Z,4.15
2023-02-17T11:32:07.219Z,4.30
2023-02-17T11:33:15.316Z,3.50
2023-02-17T11:34:24.376Z,3.20
2023-02-17T11:35:38.954Z,4.18
2023-02-17T11:36:46.014Z,4.20
2023-02-17T11:37:48.938Z,3.97
2023-02-17T11:38:51.717Z,3.62
2023-02-17T11:39:55.806Z,4.78
2023-02-17T11:41:04.845Z,3.85
2023-02-17T11:42:27.728Z,4.53
2023-02-17T11:43:33.213Z,3.25
2023-02-17T11:44:35.991Z,4.15
2023-02-17T11:46:00.848Z,3.75
2023-02-17T11:47:12.769Z,3.80
2023-02-17T11:48:40.320Z,3.25
2023-02-17T11:50:41.313Z,3.70
2023-02-17T11:52:03.363Z,3.75
2023-02-17T11:53:08.710Z,3.00
2023-02-17T11:54:32.981Z,4.78
2023-02-17T11:55:42.953Z,4.47
2023-02-17T11:57:30.530Z,4.15
2023-02-17T11:58:56.727Z,3.83
2023-02-17T12:00:14.571Z,3.95
2023-02-17T12:01:36.137Z,4.40
2023-02-17T12:03:13.095Z,4.00
2023-02-17T12:04:24.712Z,4.32
2023-02-17T12:05:52.118Z,3.90
2023-02-17T12:06:57.407Z,4.60
2023-02-17T12:08:24.781Z,5.35
2023-02-17T12:09:57.009Z,3.87
2023-02-17T12:11:13.051Z,3.95
2023-02-17T12:12:34.221Z,4.65
2023-02-17T12:13:49.130Z,4.65
2023-02-17T12:15:14.842Z,5.82
2023-02-17T12:16:23.441Z,4.15
2023-02-17T12:17:45.134Z,4.93
2023-02-17T12:19:04.944Z,4.43
2023-02-17T12:20:46.003Z,4.62
2023-02-17T12:21:54.496Z,4.50
2023-02-17T12:23:00.097Z,5.37
2023-02-17T12:24:19.371Z,5.22
2023-02-17T12:26:22.141Z,6.55
2023-02-17T12:27:54.744Z,5.47
2023-02-17T12:29:24.433Z,4.40
2023-02-17T12:30:46.528Z,5.05
2023-02-17T12:31:58.492Z,5.18
2023-02-17T12:33:58.455Z,5.80
2023-02-17T12:35:25.955Z,4.03
2023-02-17T12:36:34.817Z,5.03
2023-02-17T12:38:10.349Z,4.82
2023-02-17T12:39:22.233Z,5.93
2023-02-17T12:40:39.743Z,4.30
2023-02-17T12:42:10.503Z,5.53
2023-02-17T12:43:36.205Z,5.55
2023-02-17T12:44:44.520Z,5.93
2023-02-17T12:45:49.385Z,6.28
2023-02-17T12:47:04.062Z,5.70
2023-02-17T12:48:34.397Z,5.35
2023-02-17T12:50:01.100Z,5.82
2023-02-17T12:51:16.085Z,5.53
2023-02-17T12:52:32.444Z,5.05
2023-02-17T12:54:07.165Z,6.80
2023-02-17T12:55:25.552Z,5.60
2023-02-17T12:56:47.498Z,5.60
2023-02-17T12:58:04.274Z,6.53
2023-02-17T12:59:24.147Z,5.25
2023-02-17T13:00:33.859Z,4.87
2023-02-17T13:01:44.016Z,5.95
2023-02-17T13:02:47.732Z,5.10
2023-02-17T13:03:50.747Z,6.22
2023-02-17T13:04:57.770Z,6.10
2023-02-17T13:06:21.838Z,5.32
2023-02-17T13:07:43.880Z,6.10
2023-02-17T13:08:55.399Z,5.10
2023-02-17T13:09:58.944Z,5.47
2023-02-17T13:11:07.837Z,5.47
2023-02-17T13:12:19.033Z,5.00
2023-02-17T13:13:31.317Z,6.30
2023-02-17T13:15:01.400Z,6.30
2023-02-17T13:16:11.494Z,5.57
2023-02-17T13:17:38.873Z,4.68
2023-02-17T13:18:50.605Z,5.15
2023-02-17T13:20:20.432Z,5.35
2023-02-17T13:21:25.501Z,5.12
2023-02-17T13:22:28.661Z,5.20
2023-02-17T13:23:41.033Z,6.32
2023-02-17T13:24:55.708Z,6.12
2023-02-17T13:26:13.165Z,6.50
2023-02-17T13:27:28.523Z,5.65
2023-02-17T13:28:36.054Z,5.20
2023-02-17T13:29:39.624Z,5.28
2023-02-17T13:30:45.465Z,7.68
2023-02-17T13:32:04.997Z,6.72
2023-02-17T13:33:30.377Z,5.75
2023-02-17T13:34:37.823Z,6.35
2023-02-17T13:35:40.963Z,5.70
2023-02-17T13:36:44.231Z,5.40
2023-02-17T13:37:47.317Z,5.68
2023-02-17T13:39:08.674Z,5.47
2023-02-17T13:40:20.626Z,5.57
2023-02-17T13:41:23.891Z,6.45
2023-02-17T13:42:41.073Z,5.82
2023-02-17T13:43:44.133Z,6.18
2023-02-17T13:44:49.315Z,6.28
2023-02-17T13:46:00.212Z,7.12
2023-02-17T13:47:07.869Z,6.00
2023-02-17T13:48:20.161Z,7.45
2023-02-17T13:49:27.902Z,6.45
2023-02-17T13:50:32.960Z,6.75
2023-02-17T13:51:36.830Z,6.30
2023-02-17T13:52:44.083Z,7.95
2023-02-17T13:53:52.602Z,5.93
2023-02-17T13:55:06.597Z,7.43
2023-02-17T13:56:26.963Z,5.82
2023-02-17T13:57:36.121Z,7.22
2023-02-17T13:58:41.415Z,5.95
2023-02-17T13:59:44.459Z,6.35
2023-02-17T14:00:48.819Z,6.10
2023-02-17T14:01:55.038Z,5.65
2023-02-17T14:03:23.065Z,7.18
2023-02-17T14:04:30.838Z,5.95
2023-02-17T14:05:34.222Z,6.55
2023-02-17T14:06:38.317Z,4.93
2023-02-17T14:07:41.806Z,5.87
2023-02-17T14:08:45.237Z,5.75
2023-02-17T14:09:54.300Z,6.57
2023-02-17T14:10:58.226Z,6.30
2023-02-17T14:12:07.942Z,7.12
2023-02-17T14:13:12.597Z,6.15
2023-02-17T14:14:15.976Z,6.62
2023-02-17T14:15:22.149Z,6.22
2023-02-17T14:16:33.265Z,5.80
2023-02-17T14:17:36.366Z,5.10
2023-02-17T14:18:43.163Z,6.78
2023-02-17T14:19:49.076Z,6.05
2023-02-17T14:21:01.580Z,6.93
2023-02-17T14:22:06.342Z,6.87
2023-02-17T14:23:14.926Z,5.97
2023-02-17T14:24:29.987Z,6.62
2023-02-17T14:25:36.825Z,6.95
2023-02-17T14:26:56.328Z,7.12
2023-02-17T14:27:59.536Z,8.25
2023-02-17T14:29:05.925Z,8.85
2023-02-17T14:30:34.007Z,8.25
2023-02-17T14:31:50.585Z,8.77
2023-02-17T14:33:22.114Z,8.40
2023-02-17T14:34:29.385Z,5.97
2023-02-17T14:35:35.241Z,6.72
2023-02-17T14:36:40.916Z,6.72
2023-02-17T14:37:44.341Z,6.25
2023-02-17T14:38:56.281Z,6.37
2023-02-17T14:39:59.412Z,5.75
2023-02-17T14:41:03.046Z,7.25
2023-02-17T14:42:06.559Z,5.53
2023-02-17T14:43:09.812Z,7.10
2023-02-17T14:44:16.228Z,6.82
2023-02-17T14:45:22.642Z,6.20
2023-02-17T14:46:26.317Z,6.60
2023-02-17T14:47:29.466Z,7.80
2023-02-17T14:48:32.670Z,7.05
2023-02-17T14:49:35.929Z,8.18
2023-02-17T14:50:45.401Z,7.53
2023-02-17T14:51:48.994Z,5.65
2023-02-17T14:52:53.338Z,6.75
2023-02-17T14:53:57.515Z,8.60
2023-02-17T14:55:00.655Z,8.00
2023-02-17T14:56:07.653Z,7.45
2023-02-17T14:57:15.646Z,7.40
2023-02-17T14:58:24.264Z,6.30
2023-02-17T14:59:27.653Z,7.57
2023-02-17T15:00:31.956Z,6.28
2023-02-17T15:01:35.578Z,5.93
2023-02-17T15:02:39.029Z,7.00
2023-02-17T15:03:42.545Z,6.82
2023-02-17T15:04:45.811Z,5.90
2023-02-17T15:05:49.730Z,7.37
2023-02-17T15:06:56.431Z,7.57